UMMMUMGG

Guest
Details From UMMM - Minsk 1
To UMGG - Gomel
Flight Number -
Tags Routegen Generated
Created
Modified
Stats Distance 148 nm / 273 km
Max Altitude 600 ft / 183 m
Waypoints 6
Social Downloads 1
Likes 0
Share VATSIM

Download

Looking for another format? Having issues loading an existing format? Contact us
Advertisement - Login to hide

Notes

Departing runway 12 UMMM. Arriving runway 11 UMGG.

Route

UMMM +53.82_+027.65 +53.37_+028.85 +52.59_+030.82 +52.56_+030.89 UMGG

ID Type Via Altitude Latitude Longitude Leg Dist Tot Dist Heading (true) Name
O UMMM APT - 600 ft / 183 m 53.85929˚ 27.55203˚ - 0 nm - -
+53.82_+027.65 LATLON - 600 ft / 183 m 53.81726˚ 27.65187˚ 4 nm 4 nm 125° / 126° -
+53.37_+028.85 LATLON - 600 ft / 183 m 53.36881˚ 28.85434˚ 50 nm 54 nm 122° / 123° -
+52.59_+030.82 LATLON - 600 ft / 183 m 52.59486˚ 30.81585˚ 84 nm 139 nm 122° / 124° -
+52.56_+030.89 LATLON - 600 ft / 183 m 52.55695˚ 30.88784˚ 3 nm 143 nm 131° / 131° -
O UMGG APT - 0 ft / 0 m 52.53114˚ 30.99901˚ 4 nm 147 nm 111° / 111° -

Altitude Profile

Advertisement - Login to hide

UMMM

Details ICAO UMMM (MHP)
Name MINSK 1
Region Belarus and Russia (Kaliningrad Oblast)
Timezone Europe/Minsk (UTC+3.0)
Stats Elevation 748 ft / 228 m (AMSL)
Location 53.864471° 27.539682°
Runways 1
Magnetic Variation 7.934° E

METAR

UMMM 250700Z 07004MPS CAVOK 18/13 Q1023 RMK QFE747

Decode

TAF

Not found

Departure Runways

ID Width Length Bearing (true) Bearing (mag) Surface Threshold Offset Overrun Length
12 197 ft / 60 m 6,524 ft / 1,989 m 125.44° 117.51° Asphalt 328 ft / 100 m 0 ft / 0 m
30 197 ft / 60 m 6,524 ft / 1,989 m 305.46° 297.53° Asphalt 0 ft / 0 m 0 ft / 0 m

UMGG

Details ICAO UMGG (GME)
Name Gomel
Region Belarus and Russia (Kaliningrad Oblast)
Timezone Europe/Minsk (UTC+3.0)
Stats Elevation 472 ft / 144 m (AMSL)
Location 52.527026° 31.016471°
Runways 1
Magnetic Variation 8.388° E

METAR

UMGG 250730Z 06005MPS CAVOK 22/13 Q1022 R10/D NOSIG

Decode

TAF

TAF UMGG 250500Z 2506/2606 06006MPS 9999 SCT020 TX25/2512Z TN12/2602Z TEMPO 2506/2518 06007G12MPS TEMPO 2602/2606 08006G11MPS

Decode

Destination Runways

ID Width Length Bearing (true) Bearing (mag) Surface Threshold Offset Overrun Length
11 141 ft / 43 m 8,405 ft / 2,562 m 110.82° 102.43° Asphalt 0 ft / 0 m 164 ft / 50 m
29 141 ft / 43 m 8,405 ft / 2,562 m 290.85° 282.46° Asphalt 0 ft / 0 m 164 ft / 50 m

Approach Navaids

Runway Type Ident Frequency Range Bearing (true) Bearing (mag) Slope Elevation
11 Localiser IGM 109.30 MHz 18 nm / 33 km 110.82° 102.43° - 471 ft / 144 m (AMSL)
11 Glidescope IGM 109.30 MHz 10 nm / 19 km 109.18° 100.79° 2.70° 471 ft / 144 m (AMSL)
29 Localiser IMV 108.70 MHz 18 nm / 33 km 290.82° 282.43° - 471 ft / 144 m (AMSL)
29 Glidescope IMV 108.70 MHz 10 nm / 19 km 290.82° 282.43° 2.70° 471 ft / 144 m (AMSL)

Popular Alternatives